createdAt,value
2022-10-14T05:00:57.783Z,65.35
2022-10-14T05:03:34.361Z,65.68
2022-10-14T05:06:03.319Z,65.73
2022-10-14T05:08:32.075Z,65.53
2022-10-14T05:11:05.146Z,65.92
2022-10-14T05:13:39.297Z,65.63
2022-10-14T05:16:10.008Z,65.80
2022-10-14T05:18:39.894Z,65.69
2022-10-14T05:21:12.356Z,66.03
2022-10-14T05:24:02.026Z,65.77
2022-10-14T05:26:33.043Z,66.00
2022-10-14T05:29:04.037Z,65.86
2022-10-14T05:31:32.780Z,65.83
2022-10-14T05:34:12.101Z,65.81
2022-10-14T05:36:41.174Z,65.91
2022-10-14T05:39:09.476Z,66.12
2022-10-14T05:41:39.221Z,66.06
2022-10-14T05:44:08.570Z,66.02
2022-10-14T05:46:36.554Z,66.19
2022-10-14T05:49:07.428Z,66.40
2022-10-14T05:51:37.742Z,66.36
2022-10-14T05:54:13.862Z,65.93
2022-10-14T05:56:44.405Z,66.25
2022-10-14T05:59:13.546Z,66.19
2022-10-14T06:01:44.412Z,66.39
2022-10-14T06:04:20.327Z,66.24
2022-10-14T06:06:49.271Z,66.25
2022-10-14T06:09:18.265Z,66.11
2022-10-14T06:11:46.975Z,66.05
2022-10-14T06:14:17.251Z,66.33
2022-10-14T06:16:50.337Z,66.53
2022-10-14T06:19:19.386Z,66.30
2022-10-14T06:21:47.630Z,66.50
2022-10-14T06:24:16.507Z,66.37
2022-10-14T06:26:48.989Z,66.34
2022-10-14T06:29:18.481Z,66.45
2022-10-14T06:31:46.958Z,66.33
2022-10-14T06:34:19.158Z,66.27
2022-10-14T06:36:48.361Z,66.43
2022-10-14T06:39:17.250Z,66.28
2022-10-14T06:41:45.925Z,66.06
2022-10-14T06:44:21.576Z,66.29
2022-10-14T06:46:50.720Z,66.11
2022-10-14T06:49:19.414Z,66.11
2022-10-14T06:51:48.013Z,66.00
2022-10-14T06:54:17.267Z,66.17
2022-10-14T06:56:45.789Z,66.24
2022-10-14T06:59:14.427Z,65.94
2022-10-14T07:01:43.429Z,66.36
2022-10-14T07:04:12.430Z,66.05
2022-10-14T07:06:41.262Z,66.17
2022-10-14T07:09:10.126Z,66.20
2022-10-14T07:11:38.628Z,66.42
2022-10-14T07:14:07.311Z,66.32
2022-10-14T07:16:36.322Z,66.46
2022-10-14T07:19:05.183Z,66.32
2022-10-14T07:21:34.186Z,66.52
2022-10-14T07:24:02.961Z,66.38
2022-10-14T07:26:33.246Z,66.28
2022-10-14T07:29:02.128Z,66.19
2022-10-14T07:31:31.105Z,66.25
2022-10-14T07:34:04.087Z,66.20
2022-10-14T07:36:32.944Z,66.17
2022-10-14T07:39:01.889Z,66.13
2022-10-14T07:41:30.573Z,66.13
2022-10-14T07:44:03.613Z,66.05
2022-10-14T07:46:33.868Z,66.19
2022-10-14T07:49:06.782Z,66.12
2022-10-14T07:51:35.847Z,66.32
2022-10-14T07:54:10.034Z,66.23
2022-10-14T07:56:39.305Z,66.16
2022-10-14T07:59:10.898Z,66.13
2022-10-14T08:01:39.308Z,66.20
2022-10-14T08:04:07.477Z,66.19
2022-10-14T08:06:35.789Z,66.21
2022-10-14T08:09:05.357Z,66.17
2022-10-14T08:11:34.170Z,66.24
2022-10-14T08:14:03.143Z,66.36
2022-10-14T08:16:33.105Z,66.29
2022-10-14T08:19:06.085Z,66.22
2022-10-14T08:21:35.825Z,66.16
2022-10-14T08:24:04.692Z,66.07
2022-10-14T08:26:38.085Z,66.16
2022-10-14T08:29:07.911Z,65.93
2022-10-14T08:31:36.359Z,65.92
2022-10-14T08:34:04.816Z,66.01
2022-10-14T08:36:33.111Z,65.95
2022-10-14T08:39:02.107Z,66.09
2022-10-14T08:41:45.582Z,66.08
2022-10-14T08:44:18.421Z,65.94
2022-10-14T08:46:52.193Z,65.91
2022-10-14T08:49:24.157Z,66.01
2022-10-14T08:51:56.360Z,65.91
2022-10-14T08:54:41.797Z,65.77
2022-10-14T08:57:20.073Z,65.63
2022-10-14T08:59:49.113Z,65.62
2022-10-14T09:02:24.165Z,65.71
2022-10-14T09:04:52.938Z,65.64
2022-10-14T09:07:22.151Z,65.73
2022-10-14T09:09:54.006Z,65.61
2022-10-14T09:12:26.290Z,65.61
2022-10-14T09:15:10.212Z,65.70
2022-10-14T09:17:46.031Z,65.54
2022-10-14T09:20:22.942Z,65.48
2022-10-14T09:23:06.724Z,65.34
2022-10-14T09:25:35.894Z,65.30
2022-10-14T09:28:04.799Z,65.39
2022-10-14T09:30:36.681Z,65.31
2022-10-14T09:33:06.029Z,65.32
2022-10-14T09:35:39.228Z,65.27
2022-10-14T09:38:08.318Z,65.44
2022-10-14T09:40:40.111Z,65.48
2022-10-14T09:43:08.319Z,65.46
2022-10-14T09:45:55.809Z,65.20
2022-10-14T09:48:43.307Z,65.19
2022-10-14T09:51:21.007Z,65.07
2022-10-14T09:53:59.907Z,65.21
2022-10-14T09:56:41.794Z,65.03
2022-10-14T09:59:23.367Z,64.84
2022-10-14T10:02:06.250Z,64.99
2022-10-14T10:04:37.421Z,64.93
2022-10-14T10:07:07.946Z,64.83
2022-10-14T10:09:36.768Z,64.74
2022-10-14T10:12:48.113Z,64.86
2022-10-14T10:15:22.035Z,64.76
2022-10-14T10:17:51.651Z,64.82
2022-10-14T10:20:36.202Z,64.87
2022-10-14T10:23:37.682Z,64.70
2022-10-14T10:26:16.355Z,64.73
2022-10-14T10:28:46.737Z,64.72
2022-10-14T10:31:35.688Z,64.55
2022-10-14T10:34:04.578Z,64.64
2022-10-14T10:36:38.282Z,64.64
2022-10-14T10:39:15.936Z,64.73
2022-10-14T10:42:01.294Z,64.63
2022-10-14T10:44:30.025Z,64.81
2022-10-14T10:47:13.510Z,64.66
2022-10-14T10:50:00.817Z,64.64
2022-10-14T10:52:38.220Z,64.64
2022-10-14T10:55:12.858Z,64.55
2022-10-14T10:57:47.860Z,64.46
2022-10-14T11:00:21.828Z,64.59
2022-10-14T11:02:55.703Z,64.26
2022-10-14T11:05:38.540Z,64.36
2022-10-14T11:08:46.022Z,64.46
2022-10-14T11:12:06.906Z,64.20
2022-10-14T11:14:39.021Z,64.24
2022-10-14T11:17:14.966Z,64.26
2022-10-14T11:19:47.102Z,64.43
2022-10-14T11:22:29.740Z,64.31
2022-10-14T11:25:04.339Z,64.35
2022-10-14T11:27:46.441Z,64.30
2022-10-14T11:30:15.843Z,64.27
2022-10-14T11:32:57.643Z,64.28
2022-10-14T11:35:29.085Z,64.27
2022-10-14T11:38:04.317Z,64.40
2022-10-14T11:40:41.992Z,64.50
2022-10-14T11:43:10.378Z,64.45
2022-10-14T11:45:39.598Z,64.30
2022-10-14T11:48:11.169Z,64.38
2022-10-14T11:50:42.293Z,64.31
2022-10-14T11:53:13.495Z,64.22
2022-10-14T11:55:44.526Z,64.29
2022-10-14T11:58:15.972Z,64.20
2022-10-14T12:00:46.732Z,64.14
2022-10-14T12:03:32.471Z,64.27
2022-10-14T12:06:04.681Z,64.07
2022-10-14T12:08:46.296Z,64.21
2022-10-14T12:11:18.813Z,64.10
2022-10-14T12:13:55.070Z,64.14
2022-10-14T12:16:24.524Z,64.02
2022-10-14T12:18:57.434Z,64.07
2022-10-14T12:21:36.627Z,64.07
2022-10-14T12:24:07.514Z,64.07
2022-10-14T12:26:48.587Z,64.10
2022-10-14T12:29:20.850Z,64.25
2022-10-14T12:31:51.657Z,64.13
2022-10-14T12:34:29.005Z,63.99
2022-10-14T12:36:57.815Z,64.03
2022-10-14T12:39:31.705Z,64.03
2022-10-14T12:42:15.440Z,64.01
2022-10-14T12:44:50.254Z,64.21
2022-10-14T12:47:19.738Z,64.04
2022-10-14T12:49:50.813Z,64.13
2022-10-14T12:52:22.855Z,64.13
2022-10-14T12:54:54.734Z,64.08
2022-10-14T12:57:31.693Z,64.06
2022-10-14T13:00:02.830Z,64.00
2022-10-14T13:02:36.641Z,64.01
2022-10-14T13:05:09.895Z,64.04
2022-10-14T13:07:41.093Z,64.14
2022-10-14T13:10:32.044Z,64.01
2022-10-14T13:13:01.161Z,64.02
2022-10-14T13:15:34.991Z,64.00
2022-10-14T13:18:22.787Z,64.02
2022-10-14T13:20:52.579Z,64.00
2022-10-14T13:23:40.935Z,64.01
2022-10-14T13:26:12.582Z,64.06
2022-10-14T13:28:53.823Z,64.23
2022-10-14T13:31:27.527Z,64.21
2022-10-14T13:34:12.245Z,63.93
2022-10-14T13:36:54.201Z,63.99
2022-10-14T13:39:23.245Z,63.91
2022-10-14T13:41:52.908Z,64.02
2022-10-14T13:44:22.302Z,63.99
2022-10-14T13:46:51.350Z,63.98
2022-10-14T13:49:28.309Z,64.01
2022-10-14T13:51:56.931Z,64.03
2022-10-14T13:54:26.126Z,63.74
2022-10-14T14:02:42.997Z,63.77
2022-10-14T14:05:16.594Z,63.75
2022-10-14T14:10:39.098Z,63.69
2022-10-14T14:13:13.049Z,63.83
2022-10-14T14:15:42.939Z,63.65
2022-10-14T14:18:33.886Z,63.77
2022-10-14T14:21:13.324Z,63.66
2022-10-14T14:23:59.013Z,63.64
2022-10-14T14:26:34.994Z,63.64
2022-10-14T14:29:07.869Z,63.60
2022-10-14T14:32:05.084Z,63.72
2022-10-14T14:34:28.739Z,63.77
2022-10-14T14:37:10.980Z,63.73
2022-10-14T14:40:01.289Z,63.60
2022-10-14T14:42:32.826Z,63.74
2022-10-14T14:45:07.485Z,63.72
2022-10-14T14:47:36.309Z,63.77
2022-10-14T14:50:29.031Z,63.92
2022-10-14T14:55:37.758Z,64.05
2022-10-14T14:58:14.871Z,64.00
2022-10-14T15:00:45.772Z,63.99
2022-10-14T15:03:14.377Z,64.04
2022-10-14T15:05:49.129Z,64.07
2022-10-14T15:08:25.614Z,64.04
2022-10-14T15:10:57.520Z,64.05
2022-10-14T15:13:46.660Z,64.09
2022-10-14T15:16:32.562Z,64.07
2022-10-14T15:19:14.532Z,63.98
2022-10-14T15:21:47.971Z,64.05
2022-10-14T15:24:18.838Z,63.88
2022-10-14T15:26:47.880Z,63.92
2022-10-14T15:32:08.001Z,64.00
2022-10-14T15:34:38.538Z,64.06
2022-10-14T15:37:07.354Z,63.95
2022-10-14T15:39:36.192Z,64.12
2022-10-14T15:42:10.015Z,64.17
2022-10-14T15:44:40.893Z,64.09
2022-10-14T15:47:22.291Z,64.27
2022-10-14T15:49:54.031Z,64.31
2022-10-14T15:52:26.138Z,64.30
2022-10-14T15:54:57.922Z,64.40
2022-10-14T15:57:27.087Z,64.56
2022-10-14T15:59:55.458Z,64.53
2022-10-14T16:02:31.343Z,64.64
2022-10-14T16:07:48.717Z,64.58
2022-10-14T16:10:19.373Z,64.55
2022-10-14T16:12:48.283Z,64.67
2022-10-14T16:15:35.127Z,64.59
2022-10-14T16:18:03.413Z,64.61
2022-10-14T16:20:31.990Z,64.62
2022-10-14T16:23:01.685Z,64.78
2022-10-14T16:25:33.188Z,64.46
2022-10-14T16:28:05.279Z,64.93
2022-10-14T16:30:37.489Z,64.74
2022-10-14T16:33:06.571Z,65.07
2022-10-14T16:35:34.752Z,65.02
2022-10-14T16:38:03.476Z,64.95
2022-10-14T16:40:36.580Z,64.98
2022-10-14T16:43:07.775Z,65.20
2022-10-14T16:45:37.233Z,65.26
2022-10-14T16:48:06.355Z,65.19
2022-10-14T16:50:35.360Z,65.02
2022-10-14T16:53:22.639Z,65.13
2022-10-14T16:55:52.059Z,65.02
2022-10-14T16:58:20.518Z,65.03
2022-10-14T17:00:49.451Z,65.20
2022-10-14T17:03:18.652Z,65.06
2022-10-14T17:05:48.286Z,65.31
2022-10-14T17:08:19.045Z,65.31
2022-10-14T17:10:49.383Z,65.33
2022-10-14T17:13:18.646Z,65.53
2022-10-14T17:15:48.082Z,65.54
2022-10-14T17:18:18.012Z,65.61
2022-10-14T17:20:46.347Z,65.52
2022-10-14T17:23:14.568Z,65.71
2022-10-14T17:25:47.525Z,65.75
2022-10-14T17:28:16.232Z,65.51
2022-10-14T17:30:44.585Z,65.78
2022-10-14T17:33:13.644Z,65.74
2022-10-14T17:35:42.530Z,65.67
2022-10-14T17:38:11.011Z,65.60
2022-10-14T17:40:39.654Z,65.73
2022-10-14T17:43:08.725Z,65.59
2022-10-14T17:45:38.886Z,65.75
2022-10-14T17:48:07.826Z,65.86
2022-10-14T17:50:36.529Z,65.86
2022-10-14T17:53:04.778Z,65.86
2022-10-14T17:55:35.145Z,66.05
2022-10-14T17:58:03.965Z,66.16
2022-10-14T18:00:32.138Z,66.20
2022-10-14T18:03:00.714Z,66.33
2022-10-14T18:05:30.743Z,66.20
2022-10-14T18:07:59.305Z,66.09
2022-10-14T18:10:27.984Z,66.10
2022-10-14T18:12:58.250Z,65.96
2022-10-14T18:15:27.743Z,66.02
2022-10-14T18:17:59.757Z,66.12
2022-10-14T18:20:28.170Z,66.06
2022-10-14T18:22:56.631Z,66.08
2022-10-14T18:25:25.600Z,66.06
2022-10-14T18:27:54.275Z,66.09
2022-10-14T18:30:22.483Z,66.11
2022-10-14T18:32:54.556Z,66.29
2022-10-14T18:35:22.836Z,66.08
2022-10-14T18:37:51.595Z,66.15
2022-10-14T18:40:22.146Z,66.20
2022-10-14T18:42:51.433Z,66.07
2022-10-14T18:45:19.860Z,66.44
2022-10-14T18:47:48.897Z,66.44
2022-10-14T18:50:17.459Z,66.34
2022-10-14T18:52:46.341Z,66.30
2022-10-14T18:55:14.992Z,66.45
2022-10-14T18:57:43.822Z,66.23
2022-10-14T19:00:14.322Z,66.40
2022-10-14T19:02:43.312Z,66.37
2022-10-14T19:05:12.067Z,66.40
2022-10-14T19:07:41.052Z,66.35
2022-10-14T19:10:10.122Z,66.39
2022-10-14T19:12:41.711Z,66.41
2022-10-14T19:15:11.598Z,66.33
2022-10-14T19:17:40.451Z,66.24
2022-10-14T19:20:08.690Z,66.36
2022-10-14T19:22:41.380Z,66.41
2022-10-14T19:25:09.705Z,66.50
2022-10-14T19:27:38.520Z,66.54
2022-10-14T19:30:07.236Z,66.69
2022-10-14T19:32:36.560Z,66.62
2022-10-14T19:35:05.396Z,66.59
2022-10-14T19:37:33.602Z,66.66
2022-10-14T19:40:01.792Z,66.73
2022-10-14T19:42:30.609Z,66.77
2022-10-14T19:44:59.847Z,66.66
2022-10-14T19:47:28.577Z,66.56
2022-10-14T19:49:57.067Z,66.50
2022-10-14T19:52:26.108Z,66.64
2022-10-14T19:54:55.096Z,66.70
2022-10-14T19:57:23.704Z,66.68
2022-10-14T19:59:52.593Z,66.78
2022-10-14T20:02:21.383Z,66.69
2022-10-14T20:04:53.833Z,66.77
2022-10-14T20:07:22.286Z,66.82
2022-10-14T20:09:50.888Z,66.83
2022-10-14T20:12:19.713Z,66.99
2022-10-14T20:14:50.109Z,66.95
2022-10-14T20:19:53.177Z,66.89
2022-10-14T20:22:21.781Z,66.89
2022-10-14T20:24:50.791Z,66.89
2022-10-14T20:27:19.409Z,66.94
2022-10-14T20:29:48.935Z,67.04
2022-10-14T20:32:18.188Z,66.86
2022-10-14T20:34:47.987Z,66.83
2022-10-14T20:37:17.170Z,67.01
2022-10-14T20:39:46.323Z,67.01
2022-10-14T20:42:15.130Z,67.14
2022-10-14T20:44:43.301Z,67.00
2022-10-14T20:47:12.470Z,67.16
2022-10-14T20:49:42.845Z,67.04
2022-10-14T20:52:11.959Z,67.07
2022-10-14T20:54:43.285Z,67.10
2022-10-14T20:57:11.893Z,67.14
2022-10-14T20:59:43.126Z,67.19
2022-10-14T21:02:19.315Z,66.93
2022-10-14T21:04:48.466Z,67.02
2022-10-14T21:07:18.253Z,67.30
2022-10-14T21:09:48.003Z,67.28
2022-10-14T21:12:17.088Z,67.23
2022-10-14T21:14:46.661Z,67.26
2022-10-14T21:17:15.462Z,67.30
2022-10-14T21:19:43.924Z,67.12
2022-10-14T21:22:16.386Z,67.29
2022-10-14T21:24:44.542Z,67.30
2022-10-14T21:27:12.786Z,67.21
2022-10-14T21:29:41.520Z,67.50
2022-10-14T21:32:09.820Z,67.45
2022-10-14T21:34:38.326Z,67.39
2022-10-14T21:37:07.079Z,67.42
2022-10-14T21:39:36.391Z,67.39
2022-10-14T21:42:05.443Z,67.48
2022-10-14T21:44:33.559Z,67.47
2022-10-14T21:47:02.283Z,67.38
2022-10-14T21:49:30.330Z,67.35
2022-10-14T21:51:58.816Z,67.32
2022-10-14T21:54:27.192Z,67.43
2022-10-14T21:59:25.554Z,67.47
2022-10-14T22:01:56.741Z,67.65
2022-10-14T22:04:27.313Z,67.79
2022-10-14T22:06:55.695Z,67.70
2022-10-14T22:09:24.149Z,67.80
2022-10-14T22:11:54.034Z,67.73
2022-10-14T22:14:22.258Z,67.68
2022-10-14T22:16:50.394Z,67.73
2022-10-14T22:19:18.591Z,67.66
2022-10-14T22:21:47.909Z,67.68
2022-10-14T22:24:16.850Z,67.74
2022-10-14T22:26:45.272Z,67.72
2022-10-14T22:29:15.325Z,67.71
2022-10-14T22:31:44.121Z,67.74
2022-10-14T22:34:13.555Z,67.84
2022-10-14T22:36:42.424Z,67.86
2022-10-14T22:39:12.801Z,68.01
2022-10-14T22:41:41.127Z,68.30
2022-10-14T22:44:10.578Z,68.13
2022-10-14T22:46:39.473Z,67.98
2022-10-14T22:49:07.827Z,68.04
2022-10-14T22:51:42.937Z,68.13
2022-10-14T22:54:11.251Z,68.06
2022-10-14T22:56:41.129Z,68.24
2022-10-14T22:59:11.380Z,68.09
2022-10-14T23:01:41.255Z,68.06
2022-10-14T23:04:11.385Z,68.10
2022-10-14T23:06:40.292Z,68.14
2022-10-14T23:09:09.024Z,68.39
2022-10-14T23:11:37.379Z,68.31
2022-10-14T23:14:07.136Z,68.43
2022-10-14T23:16:36.361Z,68.34
2022-10-14T23:19:04.818Z,68.39
2022-10-14T23:21:34.489Z,68.27
2022-10-14T23:24:04.704Z,68.34
2022-10-14T23:26:34.842Z,68.31
2022-10-14T23:29:06.504Z,68.25
2022-10-14T23:31:35.761Z,68.22
2022-10-14T23:34:05.893Z,68.18
2022-10-14T23:36:34.211Z,68.35
2022-10-14T23:39:02.357Z,68.45
2022-10-14T23:41:30.548Z,68.30
2022-10-14T23:43:58.632Z,68.67
2022-10-14T23:46:27.062Z,68.53
2022-10-14T23:49:06.752Z,68.44
2022-10-14T23:51:35.958Z,68.45
2022-10-14T23:54:04.597Z,68.51
2022-10-14T23:56:32.729Z,68.38
2022-10-14T23:59:01.399Z,68.29
